sensor_id;sensor_type;location;lat;lon;timestamp;temperature;humidity
12901;DHT22;6518;50.930;5.344;2022-09-21T00:01:58;12.70;91.90
12901;DHT22;6518;50.930;5.344;2022-09-21T00:04:25;12.70;92.50
12901;DHT22;6518;50.930;5.344;2022-09-21T00:06:52;12.70;92.40
12901;DHT22;6518;50.930;5.344;2022-09-21T00:09:20;12.70;92.40
12901;DHT22;6518;50.930;5.344;2022-09-21T00:11:47;12.70;92.30
12901;DHT22;6518;50.930;5.344;2022-09-21T00:14:15;12.70;92.30
12901;DHT22;6518;50.930;5.344;2022-09-21T00:16:42;12.70;92.50
12901;DHT22;6518;50.930;5.344;2022-09-21T00:19:10;12.60;92.70
12901;DHT22;6518;50.930;5.344;2022-09-21T00:21:37;12.60;92.90
12901;DHT22;6518;50.930;5.344;2022-09-21T00:24:05;12.60;92.90
12901;DHT22;6518;50.930;5.344;2022-09-21T00:26:33;12.60;93.00
12901;DHT22;6518;50.930;5.344;2022-09-21T00:29:02;12.60;93.10
12901;DHT22;6518;50.930;5.344;2022-09-21T00:31:30;12.60;93.10
12901;DHT22;6518;50.930;5.344;2022-09-21T00:33:58;12.60;93.10
12901;DHT22;6518;50.930;5.344;2022-09-21T00:36:26;12.60;93.10
12901;DHT22;6518;50.930;5.344;2022-09-21T00:38:54;12.60;93.00
12901;DHT22;6518;50.930;5.344;2022-09-21T00:41:22;12.60;92.90
12901;DHT22;6518;50.930;5.344;2022-09-21T00:44:26;12.50;93.00
12901;DHT22;6518;50.930;5.344;2022-09-21T00:46:56;12.50;93.00
12901;DHT22;6518;50.930;5.344;2022-09-21T00:49:24;12.40;92.50
12901;DHT22;6518;50.930;5.344;2022-09-21T00:51:52;12.40;92.60
12901;DHT22;6518;50.930;5.344;2022-09-21T00:54:22;12.30;93.10
12901;DHT22;6518;50.930;5.344;2022-09-21T00:56:52;12.30;93.40
12901;DHT22;6518;50.930;5.344;2022-09-21T00:59:20;12.30;93.70
12901;DHT22;6518;50.930;5.344;2022-09-21T01:01:48;12.30;93.70
12901;DHT22;6518;50.930;5.344;2022-09-21T01:04:17;12.30;93.20
12901;DHT22;6518;50.930;5.344;2022-09-21T01:06:45;12.20;92.90
12901;DHT22;6518;50.930;5.344;2022-09-21T01:09:12;12.20;93.30
12901;DHT22;6518;50.930;5.344;2022-09-21T01:11:47;12.10;93.20
12901;DHT22;6518;50.930;5.344;2022-09-21T01:14:30;12.10;93.50
12901;DHT22;6518;50.930;5.344;2022-09-21T01:17:07;12.10;93.60
12901;DHT22;6518;50.930;5.344;2022-09-21T01:19:55;12.10;93.60
12901;DHT22;6518;50.930;5.344;2022-09-21T01:22:31;12.10;94.50
12901;DHT22;6518;50.930;5.344;2022-09-21T01:25:09;12.00;94.30
12901;DHT22;6518;50.930;5.344;2022-09-21T01:27:56;12.10;94.40
12901;DHT22;6518;50.930;5.344;2022-09-21T01:30:33;12.10;94.50
12901;DHT22;6518;50.930;5.344;2022-09-21T01:33:05;12.10;94.40
12901;DHT22;6518;50.930;5.344;2022-09-21T01:35:37;12.10;94.10
12901;DHT22;6518;50.930;5.344;2022-09-21T01:38:07;12.00;93.70
12901;DHT22;6518;50.930;5.344;2022-09-21T01:40:38;12.00;93.60
12901;DHT22;6518;50.930;5.344;2022-09-21T01:43:10;12.00;93.30
12901;DHT22;6518;50.930;5.344;2022-09-21T01:45:44;11.90;93.70
12901;DHT22;6518;50.930;5.344;2022-09-21T01:48:13;11.90;94.10
12901;DHT22;6518;50.930;5.344;2022-09-21T01:50:45;11.90;94.10
12901;DHT22;6518;50.930;5.344;2022-09-21T01:53:17;11.90;94.20
12901;DHT22;6518;50.930;5.344;2022-09-21T01:55:50;11.90;93.90
12901;DHT22;6518;50.930;5.344;2022-09-21T01:58:21;11.80;93.70
12901;DHT22;6518;50.930;5.344;2022-09-21T02:00:54;11.80;93.90
12901;DHT22;6518;50.930;5.344;2022-09-21T02:03:26;11.80;94.20
12901;DHT22;6518;50.930;5.344;2022-09-21T02:05:56;11.70;94.20
12901;DHT22;6518;50.930;5.344;2022-09-21T02:08:23;11.70;94.30
12901;DHT22;6518;50.930;5.344;2022-09-21T02:10:52;11.70;94.50
12901;DHT22;6518;50.930;5.344;2022-09-21T02:13:22;11.70;94.50
12901;DHT22;6518;50.930;5.344;2022-09-21T02:16:02;11.70;94.60
12901;DHT22;6518;50.930;5.344;2022-09-21T02:18:36;11.70;94.00
12901;DHT22;6518;50.930;5.344;2022-09-21T02:21:12;11.70;93.40
12901;DHT22;6518;50.930;5.344;2022-09-21T02:23:44;11.60;92.80
12901;DHT22;6518;50.930;5.344;2022-09-21T02:26:17;11.60;93.40
12901;DHT22;6518;50.930;5.344;2022-09-21T02:28:49;11.60;93.60
12901;DHT22;6518;50.930;5.344;2022-09-21T02:31:24;11.50;93.50
12901;DHT22;6518;50.930;5.344;2022-09-21T02:33:58;11.50;93.50
12901;DHT22;6518;50.930;5.344;2022-09-21T02:36:30;11.40;93.70
12901;DHT22;6518;50.930;5.344;2022-09-21T02:39:04;11.50;94.10
12901;DHT22;6518;50.930;5.344;2022-09-21T02:41:37;11.40;94.20
12901;DHT22;6518;50.930;5.344;2022-09-21T02:44:09;11.40;94.50
12901;DHT22;6518;50.930;5.344;2022-09-21T02:46:41;11.40;94.40
12901;DHT22;6518;50.930;5.344;2022-09-21T02:49:12;11.30;94.50
12901;DHT22;6518;50.930;5.344;2022-09-21T02:51:44;11.30;94.50
12901;DHT22;6518;50.930;5.344;2022-09-21T02:54:19;11.30;94.50
12901;DHT22;6518;50.930;5.344;2022-09-21T02:56:47;11.30;94.50
12901;DHT22;6518;50.930;5.344;2022-09-21T02:59:15;11.20;94.60
12901;DHT22;6518;50.930;5.344;2022-09-21T03:01:44;11.20;93.90
12901;DHT22;6518;50.930;5.344;2022-09-21T03:04:11;11.20;93.70
12901;DHT22;6518;50.930;5.344;2022-09-21T03:06:38;11.20;93.90
12901;DHT22;6518;50.930;5.344;2022-09-21T03:09:06;11.10;94.30
12901;DHT22;6518;50.930;5.344;2022-09-21T03:11:33;11.20;94.60
12901;DHT22;6518;50.930;5.344;2022-09-21T03:14:00;11.20;94.80
12901;DHT22;6518;50.930;5.344;2022-09-21T03:16:29;11.20;94.60
12901;DHT22;6518;50.930;5.344;2022-09-21T03:18:58;11.10;94.50
12901;DHT22;6518;50.930;5.344;2022-09-21T03:21:25;11.10;94.60
12901;DHT22;6518;50.930;5.344;2022-09-21T03:23:52;11.10;94.60
12901;DHT22;6518;50.930;5.344;2022-09-21T03:26:19;11.10;94.30
12901;DHT22;6518;50.930;5.344;2022-09-21T03:28:47;11.10;94.40
12901;DHT22;6518;50.930;5.344;2022-09-21T03:31:14;11.00;94.10
12901;DHT22;6518;50.930;5.344;2022-09-21T03:33:41;11.00;93.50
12901;DHT22;6518;50.930;5.344;2022-09-21T03:36:09;11.00;93.60
12901;DHT22;6518;50.930;5.344;2022-09-21T03:38:36;11.00;93.80
12901;DHT22;6518;50.930;5.344;2022-09-21T03:41:04;10.90;93.90
12901;DHT22;6518;50.930;5.344;2022-09-21T03:43:31;10.90;93.40
12901;DHT22;6518;50.930;5.344;2022-09-21T03:45:58;10.80;93.00
12901;DHT22;6518;50.930;5.344;2022-09-21T03:48:25;10.80;93.30
12901;DHT22;6518;50.930;5.344;2022-09-21T03:50:52;10.80;92.70
12901;DHT22;6518;50.930;5.344;2022-09-21T03:53:20;10.70;92.60
12901;DHT22;6518;50.930;5.344;2022-09-21T03:55:47;10.60;93.10
12901;DHT22;6518;50.930;5.344;2022-09-21T03:58:14;10.60;93.50
12901;DHT22;6518;50.930;5.344;2022-09-21T04:00:41;10.60;93.40
12901;DHT22;6518;50.930;5.344;2022-09-21T04:03:07;10.60;93.40
12901;DHT22;6518;50.930;5.344;2022-09-21T04:05:34;10.60;93.30
12901;DHT22;6518;50.930;5.344;2022-09-21T04:08:01;10.60;93.10
12901;DHT22;6518;50.930;5.344;2022-09-21T04:10:30;10.50;93.40
12901;DHT22;6518;50.930;5.344;2022-09-21T04:12:58;10.50;94.10
12901;DHT22;6518;50.930;5.344;2022-09-21T04:15:27;10.50;94.40
12901;DHT22;6518;50.930;5.344;2022-09-21T04:17:54;10.50;94.60
12901;DHT22;6518;50.930;5.344;2022-09-21T04:20:21;10.50;95.10
12901;DHT22;6518;50.930;5.344;2022-09-21T04:22:48;10.50;95.40
12901;DHT22;6518;50.930;5.344;2022-09-21T04:25:16;10.60;94.90
12901;DHT22;6518;50.930;5.344;2022-09-21T04:27:44;10.50;94.30
12901;DHT22;6518;50.930;5.344;2022-09-21T04:30:13;10.50;93.90
12901;DHT22;6518;50.930;5.344;2022-09-21T04:32:40;10.50;94.30
12901;DHT22;6518;50.930;5.344;2022-09-21T04:35:07;10.50;94.40
12901;DHT22;6518;50.930;5.344;2022-09-21T04:37:35;10.50;94.80
12901;DHT22;6518;50.930;5.344;2022-09-21T04:40:03;10.50;94.80
12901;DHT22;6518;50.930;5.344;2022-09-21T04:42:30;10.50;94.90
12901;DHT22;6518;50.930;5.344;2022-09-21T04:44:58;10.40;93.90
12901;DHT22;6518;50.930;5.344;2022-09-21T04:47:27;10.40;93.60
12901;DHT22;6518;50.930;5.344;2022-09-21T04:49:54;10.40;94.00
12901;DHT22;6518;50.930;5.344;2022-09-21T04:52:21;10.40;94.70
12901;DHT22;6518;50.930;5.344;2022-09-21T04:54:48;10.40;94.90
12901;DHT22;6518;50.930;5.344;2022-09-21T04:57:15;10.50;94.60
12901;DHT22;6518;50.930;5.344;2022-09-21T04:59:42;10.40;95.00
12901;DHT22;6518;50.930;5.344;2022-09-21T05:02:11;10.50;95.10
12901;DHT22;6518;50.930;5.344;2022-09-21T05:04:37;10.50;95.00
12901;DHT22;6518;50.930;5.344;2022-09-21T05:07:04;10.50;95.30
12901;DHT22;6518;50.930;5.344;2022-09-21T05:09:31;10.50;95.50
12901;DHT22;6518;50.930;5.344;2022-09-21T05:12:16;10.50;95.50
12901;DHT22;6518;50.930;5.344;2022-09-21T05:14:43;10.60;95.20
12901;DHT22;6518;50.930;5.344;2022-09-21T05:17:11;10.60;95.40
12901;DHT22;6518;50.930;5.344;2022-09-21T05:19:38;10.60;95.30
12901;DHT22;6518;50.930;5.344;2022-09-21T05:22:06;10.60;95.20
12901;DHT22;6518;50.930;5.344;2022-09-21T05:24:33;10.60;95.00
12901;DHT22;6518;50.930;5.344;2022-09-21T05:27:00;10.60;95.20
12901;DHT22;6518;50.930;5.344;2022-09-21T05:29:28;10.60;95.10
12901;DHT22;6518;50.930;5.344;2022-09-21T05:32:01;10.60;95.00
12901;DHT22;6518;50.930;5.344;2022-09-21T05:34:48;10.60;94.60
12901;DHT22;6518;50.930;5.344;2022-09-21T05:37:39;10.50;94.60
12901;DHT22;6518;50.930;5.344;2022-09-21T05:40:10;10.60;94.60
12901;DHT22;6518;50.930;5.344;2022-09-21T05:42:38;10.50;94.50
12901;DHT22;6518;50.930;5.344;2022-09-21T05:45:06;10.50;94.40
12901;DHT22;6518;50.930;5.344;2022-09-21T05:47:37;10.50;94.20
12901;DHT22;6518;50.930;5.344;2022-09-21T05:50:21;10.50;94.50
12901;DHT22;6518;50.930;5.344;2022-09-21T05:52:55;10.50;94.50
12901;DHT22;6518;50.930;5.344;2022-09-21T05:55:33;10.50;94.50
12901;DHT22;6518;50.930;5.344;2022-09-21T05:58:08;10.50;94.30
12901;DHT22;6518;50.930;5.344;2022-09-21T06:00:41;10.50;94.20
12901;DHT22;6518;50.930;5.344;2022-09-21T06:03:24;10.50;94.60
12901;DHT22;6518;50.930;5.344;2022-09-21T06:05:53;10.50;95.40
12901;DHT22;6518;50.930;5.344;2022-09-21T06:08:20;10.50;95.10
12901;DHT22;6518;50.930;5.344;2022-09-21T06:10:47;10.60;94.90
12901;DHT22;6518;50.930;5.344;2022-09-21T06:13:14;10.60;95.10
12901;DHT22;6518;50.930;5.344;2022-09-21T06:15:41;10.60;95.20
12901;DHT22;6518;50.930;5.344;2022-09-21T06:18:09;10.70;95.20
12901;DHT22;6518;50.930;5.344;2022-09-21T06:20:36;10.70;95.10
12901;DHT22;6518;50.930;5.344;2022-09-21T06:23:06;10.80;95.30
12901;DHT22;6518;50.930;5.344;2022-09-21T06:25:33;10.80;95.40
12901;DHT22;6518;50.930;5.344;2022-09-21T06:28:04;10.90;95.10
12901;DHT22;6518;50.930;5.344;2022-09-21T06:30:31;10.90;95.00
12901;DHT22;6518;50.930;5.344;2022-09-21T06:32:59;10.90;95.30
12901;DHT22;6518;50.930;5.344;2022-09-21T06:35:26;10.90;95.30
12901;DHT22;6518;50.930;5.344;2022-09-21T06:37:57;11.00;95.20
12901;DHT22;6518;50.930;5.344;2022-09-21T06:40:26;11.00;95.30
12901;DHT22;6518;50.930;5.344;2022-09-21T06:42:56;11.00;95.50
12901;DHT22;6518;50.930;5.344;2022-09-21T06:45:24;11.10;95.60
12901;DHT22;6518;50.930;5.344;2022-09-21T06:47:50;11.10;95.70
12901;DHT22;6518;50.930;5.344;2022-09-21T06:50:17;11.20;95.40
12901;DHT22;6518;50.930;5.344;2022-09-21T06:52:44;11.10;94.90
12901;DHT22;6518;50.930;5.344;2022-09-21T06:55:12;11.10;95.60
12901;DHT22;6518;50.930;5.344;2022-09-21T06:57:40;11.20;95.60
12901;DHT22;6518;50.930;5.344;2022-09-21T07:00:10;11.20;95.60
12901;DHT22;6518;50.930;5.344;2022-09-21T07:02:37;11.20;95.60
12901;DHT22;6518;50.930;5.344;2022-09-21T07:05:05;11.20;95.60
12901;DHT22;6518;50.930;5.344;2022-09-21T07:07:32;11.30;96.10
12901;DHT22;6518;50.930;5.344;2022-09-21T07:09:59;11.30;96.30
12901;DHT22;6518;50.930;5.344;2022-09-21T07:12:27;11.30;95.40
12901;DHT22;6518;50.930;5.344;2022-09-21T07:14:55;11.30;96.00
12901;DHT22;6518;50.930;5.344;2022-09-21T07:17:22;11.40;96.80
12901;DHT22;6518;50.930;5.344;2022-09-21T07:19:49;11.50;97.10
12901;DHT22;6518;50.930;5.344;2022-09-21T07:22:16;11.50;97.00
12901;DHT22;6518;50.930;5.344;2022-09-21T07:24:42;11.60;97.10
12901;DHT22;6518;50.930;5.344;2022-09-21T07:27:10;11.70;97.20
12901;DHT22;6518;50.930;5.344;2022-09-21T07:29:36;11.70;97.80
12901;DHT22;6518;50.930;5.344;2022-09-21T07:32:05;11.80;97.60
12901;DHT22;6518;50.930;5.344;2022-09-21T07:34:34;11.90;97.60
12901;DHT22;6518;50.930;5.344;2022-09-21T07:37:01;12.00;97.40
12901;DHT22;6518;50.930;5.344;2022-09-21T07:39:29;12.00;97.40
12901;DHT22;6518;50.930;5.344;2022-09-21T07:41:56;12.10;97.40
12901;DHT22;6518;50.930;5.344;2022-09-21T07:44:23;12.20;97.50
12901;DHT22;6518;50.930;5.344;2022-09-21T07:46:51;12.20;97.40
12901;DHT22;6518;50.930;5.344;2022-09-21T07:49:19;12.30;97.10
12901;DHT22;6518;50.930;5.344;2022-09-21T07:51:46;12.40;97.00
12901;DHT22;6518;50.930;5.344;2022-09-21T07:54:13;12.40;96.90
12901;DHT22;6518;50.930;5.344;2022-09-21T07:56:41;12.40;96.70
12901;DHT22;6518;50.930;5.344;2022-09-21T07:59:27;12.50;96.40
12901;DHT22;6518;50.930;5.344;2022-09-21T08:01:57;12.60;96.70
12901;DHT22;6518;50.930;5.344;2022-09-21T08:04:26;12.60;96.90
12901;DHT22;6518;50.930;5.344;2022-09-21T08:06:52;12.70;96.80
12901;DHT22;6518;50.930;5.344;2022-09-21T08:09:20;12.80;96.60
12901;DHT22;6518;50.930;5.344;2022-09-21T08:11:47;12.80;96.20
12901;DHT22;6518;50.930;5.344;2022-09-21T08:14:13;12.90;95.70
12901;DHT22;6518;50.930;5.344;2022-09-21T08:16:44;12.90;95.50
12901;DHT22;6518;50.930;5.344;2022-09-21T08:19:12;13.00;95.20
12901;DHT22;6518;50.930;5.344;2022-09-21T08:21:40;13.00;95.20
12901;DHT22;6518;50.930;5.344;2022-09-21T08:24:08;13.10;95.20
12901;DHT22;6518;50.930;5.344;2022-09-21T08:26:35;13.10;94.80
12901;DHT22;6518;50.930;5.344;2022-09-21T08:29:02;13.20;94.80
12901;DHT22;6518;50.930;5.344;2022-09-21T08:31:29;13.20;94.80
12901;DHT22;6518;50.930;5.344;2022-09-21T08:33:56;13.30;95.30
12901;DHT22;6518;50.930;5.344;2022-09-21T08:36:23;13.30;95.00
12901;DHT22;6518;50.930;5.344;2022-09-21T08:38:51;13.40;94.80
12901;DHT22;6518;50.930;5.344;2022-09-21T08:41:22;13.50;94.80
12901;DHT22;6518;50.930;5.344;2022-09-21T08:43:52;13.50;94.80
12901;DHT22;6518;50.930;5.344;2022-09-21T08:46:22;13.60;94.60
12901;DHT22;6518;50.930;5.344;2022-09-21T08:48:54;13.70;94.40
12901;DHT22;6518;50.930;5.344;2022-09-21T08:51:24;13.80;94.00
12901;DHT22;6518;50.930;5.344;2022-09-21T08:53:56;13.80;93.70
12901;DHT22;6518;50.930;5.344;2022-09-21T08:56:25;13.90;93.00
12901;DHT22;6518;50.930;5.344;2022-09-21T08:58:52;14.00;92.80
12901;DHT22;6518;50.930;5.344;2022-09-21T09:01:32;14.00;92.30
12901;DHT22;6518;50.930;5.344;2022-09-21T09:04:25;14.10;91.20
12901;DHT22;6518;50.930;5.344;2022-09-21T09:07:16;14.10;90.80
12901;DHT22;6518;50.930;5.344;2022-09-21T09:09:59;14.20;90.50
12901;DHT22;6518;50.930;5.344;2022-09-21T09:12:42;14.20;90.70
12901;DHT22;6518;50.930;5.344;2022-09-21T09:18:09;14.30;87.70
12901;DHT22;6518;50.930;5.344;2022-09-21T09:20:40;14.40;87.60
12901;DHT22;6518;50.930;5.344;2022-09-21T09:23:12;14.40;86.50
12901;DHT22;6518;50.930;5.344;2022-09-21T09:25:45;14.50;86.00
12901;DHT22;6518;50.930;5.344;2022-09-21T09:28:27;14.60;85.80
12901;DHT22;6518;50.930;5.344;2022-09-21T09:31:01;14.60;84.40
12901;DHT22;6518;50.930;5.344;2022-09-21T09:33:38;14.70;84.50
12901;DHT22;6518;50.930;5.344;2022-09-21T09:36:11;14.70;83.20
12901;DHT22;6518;50.930;5.344;2022-09-21T09:38:40;14.70;82.70
12901;DHT22;6518;50.930;5.344;2022-09-21T09:41:36;14.70;83.10
12901;DHT22;6518;50.930;5.344;2022-09-21T09:44:17;14.80;83.30
12901;DHT22;6518;50.930;5.344;2022-09-21T09:46:53;14.90;82.90
12901;DHT22;6518;50.930;5.344;2022-09-21T09:49:32;14.90;82.50
12901;DHT22;6518;50.930;5.344;2022-09-21T09:52:00;15.00;82.90
12901;DHT22;6518;50.930;5.344;2022-09-21T09:54:28;15.10;82.40
12901;DHT22;6518;50.930;5.344;2022-09-21T09:57:00;15.10;82.40
12901;DHT22;6518;50.930;5.344;2022-09-21T09:59:33;15.20;81.00
12901;DHT22;6518;50.930;5.344;2022-09-21T10:02:04;15.30;80.00
12901;DHT22;6518;50.930;5.344;2022-09-21T10:04:31;15.30;79.10
12901;DHT22;6518;50.930;5.344;2022-09-21T10:06:59;15.40;78.30
12901;DHT22;6518;50.930;5.344;2022-09-21T10:09:27;15.40;77.80
12901;DHT22;6518;50.930;5.344;2022-09-21T10:11:59;15.50;77.10
12901;DHT22;6518;50.930;5.344;2022-09-21T10:14:31;15.60;76.50
12901;DHT22;6518;50.930;5.344;2022-09-21T10:17:04;15.70;76.00
12901;DHT22;6518;50.930;5.344;2022-09-21T10:19:31;15.80;75.40
12901;DHT22;6518;50.930;5.344;2022-09-21T10:21:59;15.90;75.10
12901;DHT22;6518;50.930;5.344;2022-09-21T10:24:28;16.10;74.40
12901;DHT22;6518;50.930;5.344;2022-09-21T10:27:03;16.20;73.60
12901;DHT22;6518;50.930;5.344;2022-09-21T10:29:39;16.30;72.60
12901;DHT22;6518;50.930;5.344;2022-09-21T10:32:21;16.40;72.10
12901;DHT22;6518;50.930;5.344;2022-09-21T10:35:13;16.50;71.80
12901;DHT22;6518;50.930;5.344;2022-09-21T10:37:43;16.50;71.00
12901;DHT22;6518;50.930;5.344;2022-09-21T10:40:24;16.50;71.20
12901;DHT22;6518;50.930;5.344;2022-09-21T10:42:53;16.50;70.90
12901;DHT22;6518;50.930;5.344;2022-09-21T10:45:24;16.60;71.30
12901;DHT22;6518;50.930;5.344;2022-09-21T10:47:53;16.70;71.10
12901;DHT22;6518;50.930;5.344;2022-09-21T10:50:24;16.80;70.70
12901;DHT22;6518;50.930;5.344;2022-09-21T10:52:57;16.90;70.40
12901;DHT22;6518;50.930;5.344;2022-09-21T10:55:27;16.90;69.10
12901;DHT22;6518;50.930;5.344;2022-09-21T10:57:54;16.90;69.50
12901;DHT22;6518;50.930;5.344;2022-09-21T11:00:33;16.90;69.40
12901;DHT22;6518;50.930;5.344;2022-09-21T11:03:32;16.90;68.50
12901;DHT22;6518;50.930;5.344;2022-09-21T11:06:07;16.80;68.00
12901;DHT22;6518;50.930;5.344;2022-09-21T11:08:38;16.70;67.60
12901;DHT22;6518;50.930;5.344;2022-09-21T11:11:36;16.60;67.60
12901;DHT22;6518;50.930;5.344;2022-09-21T11:14:13;16.60;67.30
12901;DHT22;6518;50.930;5.344;2022-09-21T11:16:48;16.60;67.50
12901;DHT22;6518;50.930;5.344;2022-09-21T11:19:21;16.60;67.30
12901;DHT22;6518;50.930;5.344;2022-09-21T11:21:56;16.50;67.20
12901;DHT22;6518;50.930;5.344;2022-09-21T11:24:32;16.50;66.90
12901;DHT22;6518;50.930;5.344;2022-09-21T11:27:07;16.50;66.30
12901;DHT22;6518;50.930;5.344;2022-09-21T11:29:42;16.50;66.20
12901;DHT22;6518;50.930;5.344;2022-09-21T11:38:10;16.50;66.70
12901;DHT22;6518;50.930;5.344;2022-09-21T11:40:57;16.60;67.20
12901;DHT22;6518;50.930;5.344;2022-09-21T11:43:41;16.70;66.70
12901;DHT22;6518;50.930;5.344;2022-09-21T11:46:21;16.70;66.30
12901;DHT22;6518;50.930;5.344;2022-09-21T11:49:04;16.70;66.00
12901;DHT22;6518;50.930;5.344;2022-09-21T11:51:48;16.70;65.60
12901;DHT22;6518;50.930;5.344;2022-09-21T11:54:35;16.80;65.60
12901;DHT22;6518;50.930;5.344;2022-09-21T11:57:08;16.90;65.20
12901;DHT22;6518;50.930;5.344;2022-09-21T11:59:52;17.00;65.20
12901;DHT22;6518;50.930;5.344;2022-09-21T12:02:42;17.20;64.50
12901;DHT22;6518;50.930;5.344;2022-09-21T12:05:19;17.30;63.40
12901;DHT22;6518;50.930;5.344;2022-09-21T12:08:01;17.40;63.10
12901;DHT22;6518;50.930;5.344;2022-09-21T12:10:38;17.50;62.90
12901;DHT22;6518;50.930;5.344;2022-09-21T12:13:14;17.50;62.70
12901;DHT22;6518;50.930;5.344;2022-09-21T12:15:48;17.60;62.20
12901;DHT22;6518;50.930;5.344;2022-09-21T12:18:24;17.60;61.60
12901;DHT22;6518;50.930;5.344;2022-09-21T12:21:01;17.60;60.90
12901;DHT22;6518;50.930;5.344;2022-09-21T12:23:37;17.50;60.40
12901;DHT22;6518;50.930;5.344;2022-09-21T12:26:07;17.50;61.00
12901;DHT22;6518;50.930;5.344;2022-09-21T12:28:40;17.60;60.90
12901;DHT22;6518;50.930;5.344;2022-09-21T12:31:12;17.70;60.60
12901;DHT22;6518;50.930;5.344;2022-09-21T12:33:44;17.80;60.00
12901;DHT22;6518;50.930;5.344;2022-09-21T12:36:19;17.80;59.90
12901;DHT22;6518;50.930;5.344;2022-09-21T12:38:52;17.90;59.20
12901;DHT22;6518;50.930;5.344;2022-09-21T12:41:25;17.90;58.80
12901;DHT22;6518;50.930;5.344;2022-09-21T12:43:59;17.90;58.70
12901;DHT22;6518;50.930;5.344;2022-09-21T12:46:30;18.00;58.40
12901;DHT22;6518;50.930;5.344;2022-09-21T12:49:02;18.00;58.30
12901;DHT22;6518;50.930;5.344;2022-09-21T12:51:39;18.10;58.80
12901;DHT22;6518;50.930;5.344;2022-09-21T12:54:15;18.10;58.90
12901;DHT22;6518;50.930;5.344;2022-09-21T12:56:50;18.20;58.80
12901;DHT22;6518;50.930;5.344;2022-09-21T12:59:26;18.20;58.90
12901;DHT22;6518;50.930;5.344;2022-09-21T13:02:03;18.20;58.00
12901;DHT22;6518;50.930;5.344;2022-09-21T13:04:48;18.20;57.80
12901;DHT22;6518;50.930;5.344;2022-09-21T13:07:32;18.10;58.00
12901;DHT22;6518;50.930;5.344;2022-09-21T13:10:13;18.10;58.10
12901;DHT22;6518;50.930;5.344;2022-09-21T13:12:42;18.10;58.80
12901;DHT22;6518;50.930;5.344;2022-09-21T13:15:14;18.10;58.20
12901;DHT22;6518;50.930;5.344;2022-09-21T13:17:43;18.10;58.00
12901;DHT22;6518;50.930;5.344;2022-09-21T13:20:16;18.00;58.20
12901;DHT22;6518;50.930;5.344;2022-09-21T13:22:47;18.00;58.20
12901;DHT22;6518;50.930;5.344;2022-09-21T13:25:19;17.90;58.10
12901;DHT22;6518;50.930;5.344;2022-09-21T13:28:05;17.90;58.20
12901;DHT22;6518;50.930;5.344;2022-09-21T13:30:45;17.90;58.60
12901;DHT22;6518;50.930;5.344;2022-09-21T13:33:30;18.00;58.70
12901;DHT22;6518;50.930;5.344;2022-09-21T13:36:04;18.10;58.40
12901;DHT22;6518;50.930;5.344;2022-09-21T13:38:56;18.10;58.30
12901;DHT22;6518;50.930;5.344;2022-09-21T13:41:29;18.10;58.10
12901;DHT22;6518;50.930;5.344;2022-09-21T13:44:01;18.10;58.00
12901;DHT22;6518;50.930;5.344;2022-09-21T13:47:03;18.00;57.80
12901;DHT22;6518;50.930;5.344;2022-09-21T13:49:46;18.00;58.00
12901;DHT22;6518;50.930;5.344;2022-09-21T13:52:37;18.00;58.30
12901;DHT22;6518;50.930;5.344;2022-09-21T13:55:22;17.90;57.70
12901;DHT22;6518;50.930;5.344;2022-09-21T13:57:51;17.90;57.60
12901;DHT22;6518;50.930;5.344;2022-09-21T14:00:38;17.90;57.80
12901;DHT22;6518;50.930;5.344;2022-09-21T14:03:18;17.80;57.80
12901;DHT22;6518;50.930;5.344;2022-09-21T14:05:48;17.80;58.00
12901;DHT22;6518;50.930;5.344;2022-09-21T14:08:23;17.70;58.10
12901;DHT22;6518;50.930;5.344;2022-09-21T14:10:54;17.80;58.10
12901;DHT22;6518;50.930;5.344;2022-09-21T14:13:27;17.80;58.10
12901;DHT22;6518;50.930;5.344;2022-09-21T14:22:32;17.80;58.30
12901;DHT22;6518;50.930;5.344;2022-09-21T14:25:22;17.90;58.00
12901;DHT22;6518;50.930;5.344;2022-09-21T14:27:51;18.00;57.70
12901;DHT22;6518;50.930;5.344;2022-09-21T14:30:21;18.00;57.70
12901;DHT22;6518;50.930;5.344;2022-09-21T14:32:51;18.10;57.40
12901;DHT22;6518;50.930;5.344;2022-09-21T14:35:23;18.10;57.20
12901;DHT22;6518;50.930;5.344;2022-09-21T14:37:53;18.10;57.20
12901;DHT22;6518;50.930;5.344;2022-09-21T14:40:23;18.20;57.20
12901;DHT22;6518;50.930;5.344;2022-09-21T14:42:52;18.20;57.00
12901;DHT22;6518;50.930;5.344;2022-09-21T14:45:40;18.20;56.80
12901;DHT22;6518;50.930;5.344;2022-09-21T14:48:15;18.20;56.90
12901;DHT22;6518;50.930;5.344;2022-09-21T14:50:49;18.20;57.00
12901;DHT22;6518;50.930;5.344;2022-09-21T14:53:37;18.20;57.10
12901;DHT22;6518;50.930;5.344;2022-09-21T14:56:34;18.20;57.10
12901;DHT22;6518;50.930;5.344;2022-09-21T14:59:18;18.20;57.10
12901;DHT22;6518;50.930;5.344;2022-09-21T15:01:56;18.20;56.90
12901;DHT22;6518;50.930;5.344;2022-09-21T15:04:30;18.20;56.90
12901;DHT22;6518;50.930;5.344;2022-09-21T15:07:20;18.20;57.10
12901;DHT22;6518;50.930;5.344;2022-09-21T15:10:19;18.20;56.90
12901;DHT22;6518;50.930;5.344;2022-09-21T15:13:20;18.10;57.10
12901;DHT22;6518;50.930;5.344;2022-09-21T15:16:01;18.10;57.10
12901;DHT22;6518;50.930;5.344;2022-09-21T15:18:31;18.10;57.10
12901;DHT22;6518;50.930;5.344;2022-09-21T15:21:01;18.00;57.20
12901;DHT22;6518;50.930;5.344;2022-09-21T15:23:31;17.90;57.00
12901;DHT22;6518;50.930;5.344;2022-09-21T15:26:01;17.90;57.10
12901;DHT22;6518;50.930;5.344;2022-09-21T15:28:35;17.90;57.30
12901;DHT22;6518;50.930;5.344;2022-09-21T15:31:05;17.80;57.20
12901;DHT22;6518;50.930;5.344;2022-09-21T15:33:35;17.80;57.20
12901;DHT22;6518;50.930;5.344;2022-09-21T15:36:03;17.80;57.10
12901;DHT22;6518;50.930;5.344;2022-09-21T15:38:33;17.80;57.10
12901;DHT22;6518;50.930;5.344;2022-09-21T15:41:01;17.70;57.10
12901;DHT22;6518;50.930;5.344;2022-09-21T15:43:30;17.70;57.00
12901;DHT22;6518;50.930;5.344;2022-09-21T15:46:00;17.70;57.00
12901;DHT22;6518;50.930;5.344;2022-09-21T15:48:31;17.60;57.10
12901;DHT22;6518;50.930;5.344;2022-09-21T15:51:06;17.60;57.10
12901;DHT22;6518;50.930;5.344;2022-09-21T15:53:37;17.60;57.00
12901;DHT22;6518;50.930;5.344;2022-09-21T15:56:06;17.60;57.00
12901;DHT22;6518;50.930;5.344;2022-09-21T15:58:40;17.60;57.00
12901;DHT22;6518;50.930;5.344;2022-09-21T16:01:13;17.60;57.20
12901;DHT22;6518;50.930;5.344;2022-09-21T16:03:42;17.60;57.10
12901;DHT22;6518;50.930;5.344;2022-09-21T16:06:24;17.60;57.00
12901;DHT22;6518;50.930;5.344;2022-09-21T16:08:52;17.60;57.00
12901;DHT22;6518;50.930;5.344;2022-09-21T16:11:31;17.60;57.10
12901;DHT22;6518;50.930;5.344;2022-09-21T16:14:07;17.60;57.00
12901;DHT22;6518;50.930;5.344;2022-09-21T16:17:18;17.60;56.80
12901;DHT22;6518;50.930;5.344;2022-09-21T16:22:50;17.60;56.70
12901;DHT22;6518;50.930;5.344;2022-09-21T16:25:25;17.60;56.40
12901;DHT22;6518;50.930;5.344;2022-09-21T16:27:57;17.60;56.30
12901;DHT22;6518;50.930;5.344;2022-09-21T16:30:39;17.60;56.30
12901;DHT22;6518;50.930;5.344;2022-09-21T16:33:34;17.60;56.10
12901;DHT22;6518;50.930;5.344;2022-09-21T16:36:03;17.60;56.20
12901;DHT22;6518;50.930;5.344;2022-09-21T16:38:31;17.70;56.30